logo
Rechercher aéroport 
image banner adimage banner adimage banner ad
image banner ad

YXEA - Eadglehawk Neck Medical

Situé à , Australia

ICAO - , IATA -

Données fournies par Airmate  

Information générale

Coordonnées: S43°0'54" E147°55'32"
Élévation : 13 feet MSL.
 
Voir autres Aéroports à Tasmania

Données opérationnelles

Special qualification required
Heure actuelle UTC:
Heure actuelle locale:
Météo à : YMHB - Hobart ( 39 km )
METAR: YMHB 171949Z 32007KT 6000 -DZ SCT012 OVC020 06/06 Q1020 RF00/0/002/8
TAF: TAF AMD YMHB 171811Z 1718/1818 31005KT 9999 -SHRA SCT015 BKN022 BECMG 1800/1802 21006KT 9999 -SHRA SCT030 SCT040 FM181200 31006KT 9999 -SHRA SCT020 BKN030 TEMPO 1718/1800 3500 SHRA FEW004 BKN012 BKN020 INTER 1812/1818 4000 SHRA BKN015 BKN025
Voir NOTAMs / SUP AIP / TFR affectant cet aéroport [VIEW]
Fréquences de communication: [VIEW]

Pistes:

Coordonnées de l'aéroport

Adresse: Australia

Vue satellite de YXEA